KPGA/PGA METAR and TAF weather

Enter ICAO airport designator
Station Type Date Time Source
KPGA METAR 2019/08/24 06:53 UTC NOAA

KPGA 240653Z AUTO 26004KT 10SM CLR 29/M01 A3000 RMK AO2 SLP078 T02941011 403670217 TSNO


Station Type Date Time Source
KPGA Decoded METAR 2019/08/24 06:53 UTC NOAA

Station name not available
Aug 24, 2019 - 02:53 AM EDT / 2019.08.24 0653 UTC
Wind: from the W (260 degrees) at 5 MPH (4 KT):0
Visibility: 10 mile(s):0
Sky conditions: clear
Temperature: 84.9 F (29.4 C)
Dew Point: 30.0 F (-1.1 C)
Relative Humidity: 13%
Pressure (altimeter): 30 in. Hg (1015 hPa)
ob: KPGA 240653Z AUTO 26004KT 10SM CLR 29/M01 A3000 RMK AO2 SLP078 T02941011 403670217 TSNO
cycle: 7

Station Type Date Time Source
KPGA TAF 2019/08/24 06:42 UTC NOAA

TAF KPGA 240539Z 2406/2506 VRB06KT P6SM FEW250
FM242300 30009G16KT P6SM SCT250
FM250300 VRB05KT P6SM FEW250

Example: see airport list